Time;durP1;ratioP1;P1;durP2;ratioP2;P2;SDS_P1;SDS_P2;PMS_P1;PMS_P2;Temp;Humidity;BMP_temperature;BMP_pressure;BME280_temperature;BME280_humidity;BME280_pressure;Samples;Min_cycle;Max_cycle;Signal;HPM_P1;HPM_P2
2024/04/17 00:01:05;;;;;;;3.03;1.67;;;8.10;99.90;;;;;;5453797;26;20224;-70
2024/04/17 00:03:30;;;;;;;3.23;1.67;;;8.10;99.90;;;;;;5454022;26;20556;-71
2024/04/17 00:05:56;;;;;;;2.30;1.60;;;8.00;99.90;;;;;;5453708;26;20250;-71
2024/04/17 00:08:21;;;;;;;3.03;2.07;;;8.00;99.90;;;;;;5454057;26;20262;-71
2024/04/17 00:10:47;;;;;;;9.00;2.20;;;8.00;99.90;;;;;;5453512;26;20228;-71
2024/04/17 00:13:12;;;;;;;4.97;2.27;;;8.00;99.90;;;;;;5453986;26;20216;-71
2024/04/17 00:15:38;;;;;;;3.60;1.73;;;8.00;99.90;;;;;;5454008;26;20212;-71
2024/04/17 00:18:04;;;;;;;3.80;2.30;;;7.90;99.90;;;;;;5453805;26;20223;-71
2024/04/17 00:20:29;;;;;;;10.17;2.23;;;7.90;99.90;;;;;;5421060;26;20291;-71
2024/04/17 00:22:55;;;;;;;7.50;2.20;;;7.80;99.90;;;;;;5453350;26;20250;-71
2024/04/17 00:25:20;;;;;;;6.23;2.60;;;7.80;99.90;;;;;;5421995;26;20216;-71
2024/04/17 00:27:46;;;;;;;5.50;2.23;;;7.70;99.90;;;;;;5453724;26;20687;-71
2024/04/17 00:30:11;;;;;;;4.60;1.77;;;7.60;99.90;;;;;;5453025;26;20273;-71
2024/04/17 00:32:37;;;;;;;4.17;2.40;;;7.50;99.90;;;;;;5421809;26;20238;-71
2024/04/17 00:35:02;;;;;;;6.83;2.43;;;7.40;99.90;;;;;;5453667;26;20211;-71
2024/04/17 00:37:28;;;;;;;7.23;3.10;;;7.30;99.90;;;;;;5453623;26;20254;-71
2024/04/17 00:39:53;;;;;;;6.13;2.30;;;7.20;99.90;;;;;;5452841;26;20235;-71
2024/04/17 00:42:19;;;;;;;5.70;2.20;;;7.10;99.90;;;;;;5453457;26;20258;-71
2024/04/17 00:44:45;;;;;;;11.67;2.77;;;7.00;99.90;;;;;;5453518;26;20203;-71
2024/04/17 00:47:10;;;;;;;10.90;2.70;;;6.90;99.90;;;;;;5421366;26;20384;-71
2024/04/17 00:49:36;;;;;;;3.53;1.87;;;6.80;99.90;;;;;;5452880;26;20215;-70
2024/04/17 00:52:02;;;;;;;7.37;2.40;;;6.70;99.90;;;;;;5453076;26;20258;-71
2024/04/17 00:54:28;;;;;;;7.80;2.77;;;6.60;99.90;;;;;;5421750;26;20686;-71
2024/04/17 00:56:55;;;;;;;7.13;2.40;;;6.60;99.90;;;;;;5452537;26;20429;-71
2024/04/17 00:59:21;;;;;;;5.73;1.93;;;6.50;99.90;;;;;;5452714;26;21023;-70
2024/04/17 01:01:47;;;;;;;10.53;1.90;;;6.40;99.90;;;;;;5452594;26;20464;-71
2024/04/17 01:04:12;;;;;;;5.73;2.23;;;6.30;99.90;;;;;;5453218;26;20490;-71
2024/04/17 01:06:39;;;;;;;7.90;2.80;;;6.30;99.90;;;;;;5452910;26;20215;-71
2024/04/17 01:09:05;;;;;;;9.10;1.67;;;6.20;99.90;;;;;;5452866;26;20208;-70
2024/04/17 01:11:38;;;;;;;4.10;1.87;;;6.10;99.90;;;;;;5452508;26;20501;-71
2024/04/17 01:14:03;;;;;;;5.57;2.27;;;6.10;99.90;;;;;;5453179;26;20207;-71
2024/04/17 01:16:29;;;;;;;3.97;1.50;;;6.00;99.90;;;;;;5452943;26;20489;-71
2024/04/17 01:18:55;;;;;;;11.73;2.60;;;6.00;99.90;;;;;;5452950;26;20270;-71
2024/04/17 01:21:21;;;;;;;7.03;2.13;;;6.00;99.90;;;;;;5452419;26;20354;-71
2024/04/17 01:23:54;;;;;;;8.27;1.73;;;5.90;99.90;;;;;;5453008;26;20846;-71
2024/04/17 01:26:20;;;;;;;3.53;1.70;;;5.90;99.90;;;;;;5452646;26;20238;-71
2024/04/17 01:28:48;;;;;;;3.17;1.97;;;5.90;99.90;;;;;;5452870;26;20504;-71
2024/04/17 01:31:14;;;;;;;6.10;1.87;;;5.80;99.90;;;;;;5452375;26;20224;-71
2024/04/17 01:33:39;;;;;;;8.53;1.93;;;5.80;99.90;;;;;;5452814;26;20495;-71
2024/04/17 01:36:06;;;;;;;10.27;2.57;;;5.80;99.90;;;;;;5452694;26;20211;-71
2024/04/17 01:38:32;;;;;;;4.43;2.60;;;5.70;99.90;;;;;;5452305;26;20216;-71
2024/04/17 01:40:58;;;;;;;9.53;1.90;;;5.70;99.90;;;;;;5452106;26;20816;-71
2024/04/17 01:43:29;;;;;;;3.10;1.47;;;5.70;99.90;;;;;;5452712;26;20211;-71
2024/04/17 01:45:55;;;;;;;5.70;2.67;;;5.70;99.90;;;;;;5452795;26;20289;-71
2024/04/17 01:48:21;;;;;;;10.43;2.77;;;5.70;99.90;;;;;;5452579;26;20449;-70
2024/04/17 01:50:47;;;;;;;9.10;1.97;;;5.60;99.90;;;;;;5451562;26;20453;-71
2024/04/17 01:53:12;;;;;;;8.20;1.90;;;5.60;99.90;;;;;;5451432;26;20746;-71
2024/04/17 01:55:38;;;;;;;2.60;1.30;;;5.60;99.90;;;;;;5454118;26;20267;-71
2024/04/17 01:58:03;;;;;;;10.60;1.87;;;5.50;99.90;;;;;;5453595;26;20219;-71
2024/04/17 02:00:29;;;;;;;4.77;2.00;;;5.50;99.90;;;;;;5450281;26;20286;-71
2024/04/17 02:02:54;;;;;;;2.90;1.10;;;5.50;99.90;;;;;;5452421;26;20262;-71
2024/04/17 02:05:20;;;;;;;4.90;2.03;;;5.40;99.90;;;;;;5452440;26;20323;-71
2024/04/17 02:07:46;;;;;;;7.13;1.60;;;5.40;99.90;;;;;;5452471;26;20219;-71
2024/04/17 02:10:12;;;;;;;13.63;2.80;;;5.40;99.90;;;;;;5451843;26;20275;-71
2024/04/17 02:12:37;;;;;;;6.30;1.50;;;5.40;99.90;;;;;;5452204;26;21022;-71
2024/04/17 02:15:03;;;;;;;10.70;1.70;;;5.30;99.90;;;;;;5452214;26;20211;-71
2024/04/17 02:17:29;;;;;;;7.10;2.40;;;5.30;99.90;;;;;;5452199;26;20211;-71
2024/04/17 02:19:54;;;;;;;4.20;2.53;;;5.30;99.90;;;;;;5451740;26;20220;-71
2024/04/17 02:22:20;;;;;;;7.23;2.70;;;5.30;99.90;;;;;;5452107;26;20258;-71
2024/04/17 02:24:45;;;;;;;10.80;3.07;;;5.30;99.90;;;;;;5452058;26;20722;-71
2024/04/17 02:27:11;;;;;;;4.07;2.07;;;5.20;99.90;;;;;;5452121;26;20674;-71
2024/04/17 02:29:36;;;;;;;6.83;3.40;;;5.20;99.90;;;;;;5420027;26;20226;-71
2024/04/17 02:32:02;;;;;;;5.90;2.80;;;5.20;99.90;;;;;;5451906;26;20590;-71
2024/04/17 02:34:28;;;;;;;7.50;2.87;;;5.20;99.90;;;;;;5452156;26;20291;-71
2024/04/17 02:36:53;;;;;;;1.73;1.53;;;5.20;99.90;;;;;;5451986;26;20853;-71
2024/04/17 02:39:20;;;;;;;3.00;1.90;;;5.20;99.90;;;;;;5451815;26;20211;-71
2024/04/17 02:41:45;;;;;;;5.70;2.07;;;5.20;99.90;;;;;;5451255;26;20266;-71
2024/04/17 02:44:11;;;;;;;6.77;2.30;;;5.20;99.90;;;;;;5451735;26;20453;-71
2024/04/17 02:46:36;;;;;;;4.17;2.37;;;5.20;99.90;;;;;;5451861;26;20267;-71
2024/04/17 02:49:02;;;;;;;8.57;1.70;;;5.10;99.90;;;;;;5420058;26;20311;-71
2024/04/17 02:51:27;;;;;;;10.30;3.03;;;5.10;99.90;;;;;;5451131;26;20270;-71
2024/04/17 02:53:53;;;;;;;12.70;2.37;;;5.10;99.90;;;;;;5451530;26;20211;-71
2024/04/17 02:56:18;;;;;;;8.23;3.07;;;5.10;99.90;;;;;;5451576;26;20322;-71
2024/04/17 02:58:44;;;;;;;6.07;3.60;;;5.00;99.90;;;;;;5451567;26;20211;-71
2024/04/17 03:01:14;;;;;;;6.10;2.03;;;5.00;99.90;;;;;;5450635;26;20757;-70
2024/04/17 03:03:39;;;;;;;12.23;2.80;;;5.00;99.90;;;;;;5419620;26;20256;-71
2024/04/17 03:06:06;;;;;;;3.97;2.30;;;5.00;99.90;;;;;;5451461;26;20433;-71
2024/04/17 03:08:31;;;;;;;3.83;3.00;;;4.90;99.90;;;;;;5451077;26;20308;-71
2024/04/17 03:11:01;;;;;;;7.03;2.47;;;5.00;99.90;;;;;;5450467;26;20457;-71
2024/04/17 03:13:27;;;;;;;4.40;2.40;;;4.90;99.90;;;;;;5451042;26;20219;-70
2024/04/17 03:15:52;;;;;;;8.33;2.90;;;4.90;99.90;;;;;;5450600;26;20485;-71
2024/04/17 03:18:19;;;;;;;7.10;3.73;;;4.90;99.90;;;;;;5451232;26;20799;-71
2024/04/17 03:20:44;;;;;;;2.80;2.50;;;4.80;99.90;;;;;;5450514;26;20718;-71
2024/04/17 03:23:11;;;;;;;7.13;2.90;;;4.80;99.90;;;;;;5451131;26;20437;-71
2024/04/17 03:25:36;;;;;;;13.73;2.30;;;4.80;99.90;;;;;;5450932;26;20259;-71
2024/04/17 03:28:02;;;;;;;4.23;2.43;;;4.80;99.90;;;;;;5419327;26;20947;-71
2024/04/17 03:30:28;;;;;;;9.47;3.10;;;4.70;99.90;;;;;;5450548;26;20223;-71
2024/04/17 03:32:53;;;;;;;4.03;2.60;;;4.70;99.90;;;;;;5451013;26;20257;-71
2024/04/17 03:35:19;;;;;;;4.67;2.70;;;4.70;99.90;;;;;;5450947;26;20211;-71
2024/04/17 03:37:45;;;;;;;2.00;1.83;;;4.70;99.90;;;;;;5450859;26;20216;-70
2024/04/17 03:40:10;;;;;;;10.20;3.47;;;4.70;99.90;;;;;;5450229;26;20465;-71
2024/04/17 03:42:36;;;;;;;4.93;2.30;;;4.70;99.90;;;;;;5450811;26;20521;-71
2024/04/17 03:45:03;;;;;;;3.93;2.67;;;4.60;99.90;;;;;;5450546;26;20786;-71
2024/04/17 03:47:28;;;;;;;3.87;1.90;;;4.60;99.90;;;;;;5450764;26;21178;-71
2024/04/17 03:50:01;;;;;;;6.30;2.70;;;4.60;99.90;;;;;;5449911;26;20457;-70
2024/04/17 03:52:26;;;;;;;10.13;3.70;;;4.60;99.90;;;;;;5450634;26;20601;-71
2024/04/17 03:54:52;;;;;;;9.60;3.27;;;4.60;99.90;;;;;;5450414;26;20437;-71
2024/04/17 03:57:17;;;;;;;12.13;2.83;;;4.60;99.90;;;;;;5450572;26;20648;-70
2024/04/17 03:59:43;;;;;;;6.87;2.90;;;4.60;99.90;;;;;;5449953;26;20212;-70
2024/04/17 04:02:08;;;;;;;10.60;4.33;;;4.60;99.90;;;;;;5450486;26;20212;-70
2024/04/17 04:04:34;;;;;;;8.20;3.20;;;4.60;99.90;;;;;;5450243;26;20275;-71
2024/04/17 04:06:59;;;;;;;4.73;2.73;;;4.60;99.90;;;;;;5450119;26;20258;-71
2024/04/17 04:09:25;;;;;;;3.17;1.83;;;4.60;99.90;;;;;;5450263;26;20227;-71
2024/04/17 04:11:51;;;;;;;6.83;2.40;;;4.60;99.90;;;;;;5449847;26;20267;-71
2024/04/17 04:14:16;;;;;;;9.50;2.50;;;4.60;99.90;;;;;;5450463;26;20207;-71
2024/04/17 04:16:42;;;;;;;4.07;2.33;;;4.60;99.90;;;;;;5450352;26;20963;-71
2024/04/17 04:19:07;;;;;;;5.60;3.00;;;4.60;99.90;;;;;;5449760;26;20204;-71
2024/04/17 04:21:33;;;;;;;9.33;3.73;;;4.50;99.90;;;;;;5449346;26;20337;-71
2024/04/17 04:23:59;;;;;;;7.10;3.77;;;4.50;99.90;;;;;;5452339;26;20239;-71
2024/04/17 04:26:24;;;;;;;4.70;2.90;;;4.50;99.90;;;;;;5453933;26;20207;-71
2024/04/17 04:28:50;;;;;;;5.60;2.63;;;4.50;99.90;;;;;;5453707;26;20557;-71
2024/04/17 04:31:16;;;;;;;6.20;3.67;;;4.40;99.90;;;;;;5453348;26;20223;-72
2024/04/17 04:33:41;;;;;;;11.23;4.70;;;4.40;99.90;;;;;;5453621;26;20246;-71
2024/04/17 04:36:07;;;;;;;15.57;5.80;;;4.40;99.90;;;;;;5453667;26;20257;-71
2024/04/17 04:38:32;;;;;;;6.67;5.30;;;4.40;99.90;;;;;;5421813;26;20216;-71
2024/04/17 04:40:58;;;;;;;9.17;3.60;;;4.40;99.90;;;;;;5453076;26;20223;-71
2024/04/17 04:43:24;;;;;;;10.77;4.90;;;4.40;99.90;;;;;;5453576;26;20551;-71
2024/04/17 04:45:49;;;;;;;11.50;5.43;;;4.40;99.90;;;;;;5453698;26;20433;-71
2024/04/17 04:48:15;;;;;;;6.70;5.00;;;4.40;99.90;;;;;;5453595;26;20215;-71
2024/04/17 04:50:40;;;;;;;9.93;4.33;;;4.50;99.90;;;;;;5452875;26;20224;-71
2024/04/17 04:53:06;;;;;;;11.97;5.97;;;4.50;99.90;;;;;;5453341;26;20315;-71
2024/04/17 04:55:32;;;;;;;14.50;5.87;;;4.50;99.90;;;;;;5453379;26;20745;-70
2024/04/17 04:57:57;;;;;;;9.30;4.73;;;4.50;99.90;;;;;;5421712;26;20212;-71
2024/04/17 05:00:23;;;;;;;15.53;6.40;;;4.60;99.90;;;;;;5452948;26;20505;-71
2024/04/17 05:02:48;;;;;;;21.30;9.23;;;4.70;99.90;;;;;;5453274;26;20319;-71
2024/04/17 05:05:14;;;;;;;12.60;6.27;;;4.70;99.90;;;;;;5452983;26;20265;-71
2024/04/17 05:07:40;;;;;;;7.70;5.90;;;4.80;99.90;;;;;;5453149;26;20372;-71
2024/04/17 05:10:05;;;;;;;8.00;4.97;;;4.90;99.90;;;;;;5452850;26;20254;-70
2024/04/17 05:12:31;;;;;;;6.47;4.63;;;5.00;99.90;;;;;;5453100;26;20287;-70
2024/04/17 05:14:56;;;;;;;7.27;4.90;;;5.00;99.90;;;;;;5453149;26;20211;-71
2024/04/17 05:17:22;;;;;;;7.07;5.00;;;5.10;99.90;;;;;;5421391;26;20272;-70
2024/04/17 05:19:48;;;;;;;12.43;5.27;;;5.20;99.90;;;;;;5452869;26;21199;-71
2024/04/17 05:22:14;;;;;;;10.87;6.57;;;5.20;99.90;;;;;;5452757;26;20258;-71
2024/04/17 05:24:39;;;;;;;7.10;4.57;;;5.30;99.90;;;;;;5452943;26;20789;-71
2024/04/17 05:27:05;;;;;;;18.23;6.40;;;5.30;99.90;;;;;;5452743;26;20204;-71
2024/04/17 05:29:30;;;;;;;13.83;7.03;;;5.20;99.90;;;;;;5452480;26;20258;-71
2024/04/17 05:31:56;;;;;;;10.20;6.70;;;5.30;99.90;;;;;;5452234;26;20254;-71
2024/04/17 05:34:21;;;;;;;20.27;7.07;;;5.30;99.90;;;;;;5452417;26;20207;-70
2024/04/17 05:36:47;;;;;;;11.97;5.60;;;5.40;99.90;;;;;;5452552;26;20559;-71
2024/04/17 05:39:12;;;;;;;11.83;7.20;;;5.40;99.90;;;;;;5420846;26;20246;-72
2024/04/17 05:41:38;;;;;;;11.73;6.53;;;5.50;99.90;;;;;;5452236;26;20267;-71
2024/04/17 05:44:03;;;;;;;9.70;6.37;;;5.70;99.90;;;;;;5452785;26;20211;-70
2024/04/17 05:46:29;;;;;;;9.03;5.90;;;5.80;99.90;;;;;;5452745;26;20215;-71
2024/04/17 05:48:54;;;;;;;9.23;5.50;;;6.00;99.90;;;;;;5452615;26;20211;-71
2024/04/17 05:51:20;;;;;;;11.80;7.00;;;6.20;99.90;;;;;;5452034;26;20249;-71
2024/04/17 05:53:46;;;;;;;23.87;7.00;;;6.40;99.90;;;;;;5452474;26;20216;-71
2024/04/17 05:56:11;;;;;;;8.17;5.40;;;6.60;99.90;;;;;;5452550;26;20227;-71
2024/04/17 05:58:37;;;;;;;8.57;6.70;;;6.80;99.90;;;;;;5452541;26;20314;-71
2024/04/17 06:01:03;;;;;;;7.20;5.50;;;6.90;99.90;;;;;;5451927;26;20266;-71
2024/04/17 06:03:28;;;;;;;7.93;5.60;;;7.10;99.90;;;;;;5452303;26;20227;-70
2024/04/17 06:05:54;;;;;;;8.87;6.17;;;7.20;99.90;;;;;;5451854;26;20433;-70
2024/04/17 06:08:19;;;;;;;8.77;4.17;;;7.40;99.90;;;;;;5452104;26;20215;-70
2024/04/17 06:10:45;;;;;;;10.10;5.27;;;7.50;99.90;;;;;;5451785;26;20219;-71
2024/04/17 06:13:10;;;;;;;7.50;5.47;;;7.60;99.90;;;;;;5452311;26;20324;-70
2024/04/17 06:15:36;;;;;;;6.63;4.30;;;7.70;99.90;;;;;;5452127;26;20211;-70
2024/04/17 06:18:02;;;;;;;11.03;4.97;;;7.80;99.90;;;;;;5452498;26;20671;-71
2024/04/17 06:20:28;;;;;;;7.73;4.97;;;8.00;99.90;;;;;;5451657;26;20324;-71
2024/04/17 06:22:54;;;;;;;6.27;4.63;;;8.10;99.90;;;;;;5452218;26;20437;-71
2024/04/17 06:25:19;;;;;;;7.40;4.27;;;8.30;99.90;;;;;;5452270;26;20682;-72
2024/04/17 06:27:45;;;;;;;8.80;5.20;;;8.40;99.90;;;;;;5452138;26;20323;-71
2024/04/17 06:30:10;;;;;;;7.43;4.80;;;8.50;99.90;;;;;;5451347;26;20300;-71
2024/04/17 06:32:36;;;;;;;15.77;4.93;;;8.70;99.90;;;;;;5452333;26;20694;-70
2024/04/17 06:35:02;;;;;;;11.30;5.10;;;8.80;99.90;;;;;;5451862;26;20211;-71
2024/04/17 06:37:28;;;;;;;5.60;4.70;;;8.80;99.90;;;;;;5451774;26;20255;-70
2024/04/17 06:39:53;;;;;;;4.57;3.13;;;8.80;99.90;;;;;;5451364;26;20444;-71
2024/04/17 06:42:18;;;;;;;8.47;4.40;;;8.90;99.90;;;;;;5451490;26;20211;-70
2024/04/17 06:44:44;;;;;;;9.00;5.80;;;8.80;99.90;;;;;;5451789;26;20345;-71
2024/04/17 06:47:09;;;;;;;6.97;3.60;;;8.80;99.90;;;;;;5450616;26;20501;-70
2024/04/17 06:49:35;;;;;;;7.00;3.90;;;8.70;99.90;;;;;;5451393;26;20262;-71
2024/04/17 06:52:01;;;;;;;8.43;3.87;;;8.70;99.90;;;;;;5451135;26;20216;-73
2024/04/17 06:54:26;;;;;;;5.07;3.40;;;8.60;99.90;;;;;;5451585;26;20208;-71
2024/04/17 06:56:52;;;;;;;5.17;4.03;;;8.60;99.90;;;;;;5451944;26;20219;-71
2024/04/17 06:59:17;;;;;;;6.60;3.23;;;8.60;99.90;;;;;;5451274;26;20207;-70
2024/04/17 07:01:43;;;;;;;7.97;3.50;;;8.70;99.90;;;;;;5450730;26;20271;-72
2024/04/17 07:04:08;;;;;;;3.43;3.13;;;8.70;99.90;;;;;;5451160;26;20211;-71
2024/04/17 07:06:34;;;;;;;7.83;4.13;;;8.80;99.90;;;;;;5451311;26;20276;-70
2024/04/17 07:08:59;;;;;;;6.60;4.27;;;8.80;99.90;;;;;;5419681;26;20246;-70
2024/04/17 07:11:25;;;;;;;5.23;4.70;;;8.90;99.90;;;;;;5451065;26;20760;-71
2024/04/17 07:13:50;;;;;;;3.53;3.20;;;9.00;99.90;;;;;;5451373;26;20215;-71
2024/04/17 07:16:16;;;;;;;6.33;3.47;;;9.10;99.90;;;;;;5451562;26;20257;-71
2024/04/17 07:18:41;;;;;;;4.50;3.40;;;9.10;99.90;;;;;;5451326;26;21005;-71
2024/04/17 07:21:07;;;;;;;4.33;2.93;;;9.10;99.90;;;;;;5450876;26;20224;-70
2024/04/17 07:23:32;;;;;;;2.63;2.43;;;9.00;99.90;;;;;;5419580;26;20215;-71
2024/04/17 07:25:58;;;;;;;8.73;3.13;;;8.90;99.90;;;;;;5451171;26;20632;-71
2024/04/17 07:28:24;;;;;;;2.90;2.70;;;8.80;99.90;;;;;;5451246;26;20245;-71
2024/04/17 07:30:50;;;;;;;2.20;2.00;;;8.80;99.90;;;;;;5450267;26;20223;-71
2024/04/17 07:33:15;;;;;;;5.03;2.50;;;8.80;99.90;;;;;;5450958;26;20683;-70
2024/04/17 07:35:41;;;;;;;5.67;2.23;;;8.70;99.90;;;;;;5450834;26;20215;-70
2024/04/17 07:38:09;;;;;;;4.13;2.30;;;8.80;99.90;;;;;;5450953;26;20211;-70
2024/04/17 07:40:34;;;;;;;3.03;2.40;;;8.80;99.90;;;;;;5450632;26;20235;-70
2024/04/17 07:43:00;;;;;;;3.43;2.70;;;9.00;99.90;;;;;;5450834;26;20806;-70
2024/04/17 07:45:25;;;;;;;6.53;3.13;;;9.20;99.90;;;;;;5450896;26;20207;-70
2024/04/17 07:47:51;;;;;;;2.23;1.90;;;9.20;99.90;;;;;;5450593;26;20207;-70
2024/04/17 07:50:16;;;;;;;3.00;1.80;;;9.20;99.90;;;;;;5450423;26;20673;-70
2024/04/17 07:52:42;;;;;;;1.83;1.27;;;9.10;99.90;;;;;;5450916;26;20208;-70
2024/04/17 07:55:07;;;;;;;1.60;1.20;;;9.00;99.90;;;;;;5450541;26;20835;-70
2024/04/17 07:57:33;;;;;;;1.83;1.40;;;8.80;99.90;;;;;;5450732;26;20262;-71
2024/04/17 08:00:00;;;;;;;1.43;1.33;;;8.70;99.90;;;;;;5451551;26;20274;-71
2024/04/17 08:02:25;;;;;;;1.10;1.00;;;8.70;99.90;;;;;;5453442;26;20258;-70
2024/04/17 08:04:50;;;;;;;1.20;0.90;;;8.60;99.90;;;;;;5453551;26;20436;-71
2024/04/17 08:07:16;;;;;;;2.03;1.20;;;8.40;99.90;;;;;;5453560;26;20715;-71
2024/04/17 08:09:42;;;;;;;5.73;1.33;;;8.30;99.90;;;;;;5454026;26;20223;-71
2024/04/17 08:12:07;;;;;;;2.80;1.40;;;8.30;99.90;;;;;;5453634;26;20644;-71
2024/04/17 08:14:33;;;;;;;2.23;1.30;;;8.30;99.90;;;;;;5453859;26;20216;-71
2024/04/17 08:16:59;;;;;;;2.83;1.23;;;8.20;99.90;;;;;;5453963;26;20955;-71
2024/04/17 08:19:24;;;;;;;2.80;1.70;;;8.30;99.90;;;;;;5453764;26;20266;-70
2024/04/17 08:21:50;;;;;;;2.10;1.63;;;8.30;99.90;;;;;;5453525;26;20662;-71
2024/04/17 08:24:16;;;;;;;3.80;2.50;;;8.40;99.90;;;;;;5453387;26;20223;-71
2024/04/17 08:26:41;;;;;;;2.33;2.10;;;8.50;99.90;;;;;;5453848;26;20262;-71
2024/04/17 08:29:07;;;;;;;1.80;1.70;;;8.60;99.90;;;;;;5453640;26;21031;-71
2024/04/17 08:31:33;;;;;;;2.03;1.83;;;8.80;99.90;;;;;;5452248;26;20219;-71
2024/04/17 08:33:58;;;;;;;2.83;1.73;;;9.00;99.90;;;;;;5453600;26;20440;-71
2024/04/17 08:36:24;;;;;;;2.50;2.30;;;9.10;99.90;;;;;;5453432;26;20215;-71
2024/04/17 08:38:55;;;;;;;2.77;1.80;;;9.20;99.90;;;;;;5453837;26;20212;-70
2024/04/17 08:41:26;;;;;;;4.37;2.67;;;9.40;99.90;;;;;;5452975;26;20684;-71
2024/04/17 08:43:54;;;;;;;2.27;1.93;;;9.50;99.90;;;;;;5453525;26;20943;-70
2024/04/17 08:46:20;;;;;;;4.60;1.47;;;9.60;99.90;;;;;;5453349;26;20879;-70
2024/04/17 08:48:47;;;;;;;2.60;1.63;;;9.70;99.90;;;;;;5453459;26;21046;-70
2024/04/17 08:51:15;;;;;;;4.23;1.40;;;9.70;99.90;;;;;;5452993;26;20452;-70
2024/04/17 08:53:41;;;;;;;3.50;1.67;;;9.80;99.90;;;;;;5453403;26;20899;-70
2024/04/17 08:56:08;;;;;;;2.07;1.60;;;9.80;99.90;;;;;;5453334;26;20437;-70
2024/04/17 08:58:34;;;;;;;3.80;1.63;;;9.70;99.90;;;;;;5453407;26;20844;-70
2024/04/17 09:01:02;;;;;;;1.97;1.57;;;9.70;99.90;;;;;;5452658;26;20453;-71
2024/04/17 09:03:29;;;;;;;3.80;2.30;;;9.70;99.90;;;;;;5453279;26;20834;-70
2024/04/17 09:05:55;;;;;;;3.33;1.73;;;9.70;99.90;;;;;;5453143;26;20972;-70
2024/04/17 09:08:21;;;;;;;8.90;1.97;;;9.70;99.90;;;;;;5452645;26;20449;-70
2024/04/17 09:10:47;;;;;;;1.90;1.80;;;9.80;99.90;;;;;;5420873;26;20472;-70
2024/04/17 09:13:13;;;;;;;3.10;1.80;;;10.00;99.90;;;;;;5453589;26;20437;-71
2024/04/17 09:15:39;;;;;;;4.03;2.10;;;10.10;99.90;;;;;;5453440;26;20263;-71
2024/04/17 09:18:08;;;;;;;1.80;1.70;;;10.20;99.90;;;;;;5421272;26;20545;-71
2024/04/17 09:20:37;;;;;;;7.10;2.27;;;10.50;99.90;;;;;;5452184;26;20243;-70
2024/04/17 09:23:08;;;;;;;2.90;1.63;;;10.70;99.90;;;;;;5453066;26;20847;-71
2024/04/17 09:25:35;;;;;;;2.47;1.90;;;10.90;99.90;;;;;;5452995;26;20829;-70
2024/04/17 09:28:01;;;;;;;2.13;2.00;;;11.00;99.90;;;;;;5452895;26;21043;-70
2024/04/17 09:30:26;;;;;;;2.37;2.00;;;11.00;99.90;;;;;;5452462;26;20453;-70
2024/04/17 09:32:52;;;;;;;2.17;1.50;;;11.00;99.90;;;;;;5452984;26;20254;-70
2024/04/17 09:35:17;;;;;;;2.00;1.77;;;11.00;99.90;;;;;;5452981;26;20258;-71
2024/04/17 09:37:43;;;;;;;2.20;1.50;;;11.00;99.90;;;;;;5451163;26;20312;-71
2024/04/17 09:40:10;;;;;;;4.07;1.80;;;10.90;99.90;;;;;;5452606;26;20746;-70
2024/04/17 09:42:37;;;;;;;7.60;1.90;;;10.90;99.90;;;;;;5452981;26;20257;-71
2024/04/17 09:45:03;;;;;;;2.70;2.33;;;10.90;99.90;;;;;;5452727;26;20555;-71
2024/04/17 09:47:29;;;;;;;2.60;2.17;;;10.90;99.90;;;;;;5452866;26;20437;-71
2024/04/17 09:49:59;;;;;;;2.00;1.63;;;10.90;99.90;;;;;;5452306;26;20575;-71
2024/04/17 09:52:26;;;;;;;2.33;2.13;;;10.80;99.90;;;;;;5452248;26;20287;-71
2024/04/17 09:54:52;;;;;;;4.27;2.60;;;10.70;99.90;;;;;;5452861;26;20453;-71
2024/04/17 09:57:19;;;;;;;2.87;2.50;;;10.60;99.90;;;;;;5452448;26;20485;-71
2024/04/17 09:59:46;;;;;;;4.70;2.30;;;10.60;99.90;;;;;;5452110;26;20469;-71
2024/04/17 10:02:14;;;;;;;2.07;1.97;;;10.60;99.90;;;;;;5453785;26;20570;-71
2024/04/17 10:04:40;;;;;;;3.90;2.53;;;10.60;99.90;;;;;;5452433;26;20457;-70
2024/04/17 10:07:10;;;;;;;2.40;2.20;;;10.60;99.90;;;;;;5463817;26;20451;-71
2024/04/17 10:09:36;;;;;;;4.07;2.67;;;10.80;99.90;;;;;;5460202;26;20453;-71
2024/04/17 10:12:02;;;;;;;2.17;1.97;;;10.90;99.90;;;;;;5420326;26;20506;-70
2024/04/17 10:14:29;;;;;;;3.87;2.90;;;11.10;99.90;;;;;;5452295;26;20574;-71
2024/04/17 10:16:56;;;;;;;2.80;2.60;;;11.30;99.90;;;;;;5452272;26;20486;-70
2024/04/17 10:19:22;;;;;;;3.10;2.37;;;11.60;99.90;;;;;;5452064;26;20505;-71
2024/04/17 10:21:48;;;;;;;2.50;2.30;;;12.00;99.90;;;;;;5448069;26;20457;-71
2024/04/17 10:24:14;;;;;;;4.57;2.80;;;12.50;99.90;;;;;;5451326;26;20517;-71
2024/04/17 10:26:45;;;;;;;3.60;3.27;;;13.10;99.90;;;;;;5452258;26;20207;-70
2024/04/17 10:29:18;;;;;;;4.70;2.77;;;14.50;99.90;;;;;;5451833;26;20283;-70
2024/04/17 10:32:02;;;;;;;3.10;2.30;;;16.50;99.90;;;;;;5451715;26;20520;-71
2024/04/17 10:34:28;;;;;;;2.00;1.80;;;18.60;99.90;;;;;;5452118;26;20489;-69
2024/04/17 10:36:58;;;;;;;3.60;1.30;;;20.50;99.90;;;;;;5451588;26;20489;-68
2024/04/17 10:39:26;;;;;;;5.50;1.40;;;21.30;99.90;;;;;;5451745;26;20513;-68
2024/04/17 10:41:52;;;;;;;2.60;1.40;;;21.80;99.90;;;;;;5451451;26;20457;-69
2024/04/17 10:44:21;;;;;;;1.60;1.47;;;21.60;92.20;;;;;;5451874;26;20970;-68
2024/04/17 10:46:47;;;;;;;1.50;1.07;;;21.10;83.20;;;;;;5451815;26;21036;-68
2024/04/17 10:49:22;;;;;;;3.80;1.37;;;20.70;78.80;;;;;;5451009;26;20468;-68
2024/04/17 10:51:47;;;;;;;3.23;1.57;;;20.60;80.00;;;;;;5451358;26;20468;-67
2024/04/17 10:54:13;;;;;;;2.60;1.83;;;21.10;81.10;;;;;;5451959;26;20444;-68
2024/04/17 10:56:39;;;;;;;1.80;1.67;;;21.70;79.00;;;;;;5451605;26;20272;-68
2024/04/17 10:59:05;;;;;;;3.10;1.73;;;23.80;82.10;;;;;;5450894;26;20433;-68
2024/04/17 11:01:31;;;;;;;3.33;1.70;;;27.30;71.90;;;;;;5451069;26;20582;-68
2024/04/17 11:03:57;;;;;;;2.30;1.70;;;31.50;58.10;;;;;;5451331;26;20211;-68
2024/04/17 11:06:23;;;;;;;1.80;1.57;;;33.80;47.40;;;;;;5451644;26;20262;-69
2024/04/17 11:08:52;;;;;;;3.37;1.50;;;33.40;39.10;;;;;;5451595;26;20844;-67
2024/04/17 11:11:17;;;;;;;2.93;1.63;;;32.50;36.80;;;;;;5450831;26;20227;-68
2024/04/17 11:13:43;;;;;;;1.90;1.70;;;31.70;35.90;;;;;;5451254;26;21036;-68
2024/04/17 11:16:13;;;;;;;2.77;1.80;;;30.30;35.10;;;;;;5419755;26;20269;-68
2024/04/17 11:18:39;;;;;;;2.33;1.83;;;28.60;34.40;;;;;;5419445;26;20626;-68
2024/04/17 11:21:05;;;;;;;2.07;1.77;;;26.80;35.70;;;;;;5418958;26;20469;-67
2024/04/17 11:23:41;;;;;;;3.17;1.50;;;25.20;36.70;;;;;;5451240;26;20571;-69
2024/04/17 11:26:07;;;;;;;3.13;1.67;;;23.60;37.90;;;;;;5451456;26;20584;-70
2024/04/17 11:28:33;;;;;;;3.03;2.00;;;22.10;39.30;;;;;;5451096;26;20567;-70
2024/04/17 11:30:59;;;;;;;2.70;2.50;;;20.80;40.70;;;;;;5450814;26;20465;-69
2024/04/17 11:33:27;;;;;;;2.13;2.03;;;19.80;42.30;;;;;;5454152;26;20975;-69
2024/04/17 11:36:04;;;;;;;4.03;1.63;;;19.10;44.10;;;;;;5454571;26;20215;-69
2024/04/17 11:38:32;;;;;;;1.80;1.70;;;18.80;46.00;;;;;;5454567;26;20449;-70
2024/04/17 11:41:00;;;;;;;2.10;1.40;;;18.90;49.00;;;;;;5454257;26;20489;-69
2024/04/17 11:43:26;;;;;;;3.20;1.40;;;21.50;55.30;;;;;;5454359;26;20437;-69
2024/04/17 11:45:51;;;;;;;2.60;1.83;;;25.30;54.60;;;;;;5454386;26;20433;-70
2024/04/17 11:48:17;;;;;;;1.63;1.53;;;29.30;48.90;;;;;;5422556;26;20449;-70
2024/04/17 11:50:42;;;;;;;2.70;1.13;;;32.80;40.20;;;;;;5454044;26;20235;-70
2024/04/17 11:53:08;;;;;;;1.60;1.50;;;35.60;36.50;;;;;;5454383;26;20211;-70
2024/04/17 11:55:34;;;;;;;1.97;1.27;;;37.60;33.20;;;;;;5454288;26;20211;-67
2024/04/17 11:58:00;;;;;;;2.10;1.50;;;39.30;30.90;;;;;;5454233;26;20262;-67
2024/04/17 12:00:26;;;;;;;3.13;1.80;;;41.40;29.70;;;;;;5453017;26;20532;-68
2024/04/17 12:02:52;;;;;;;2.10;1.90;;;42.70;26.20;;;;;;5454543;26;20265;-68
2024/04/17 12:05:17;;;;;;;3.40;1.93;;;41.30;24.60;;;;;;5454116;26;20501;-67
2024/04/17 12:07:43;;;;;;;1.37;1.27;;;39.10;24.00;;;;;;5454096;26;20976;-67
2024/04/17 12:10:08;;;;;;;1.30;1.10;;;36.10;23.60;;;;;;5453727;26;20224;-67
2024/04/17 12:12:34;;;;;;;2.83;1.40;;;32.80;24.60;;;;;;5453971;26;20254;-69
2024/04/17 12:15:00;;;;;;;2.53;1.37;;;29.70;26.00;;;;;;5422287;26;20618;-69
2024/04/17 12:17:26;;;;;;;3.57;1.97;;;26.70;27.70;;;;;;5454030;26;20219;-69
2024/04/17 12:19:52;;;;;;;4.83;1.90;;;24.20;29.90;;;;;;5421769;26;20545;-69
2024/04/17 12:22:18;;;;;;;3.20;2.00;;;22.50;32.20;;;;;;5453995;26;20212;-69
2024/04/17 12:27:29;;;;;;;2.37;1.60;;;20.30;37.30;;;;;;5453904;26;20548;-69
2024/04/17 12:29:55;;;;;;;1.73;1.60;;;19.40;38.90;;;;;;5421515;26;20472;-69
2024/04/17 12:32:20;;;;;;;1.83;1.37;;;18.80;39.80;;;;;;5453547;26;20509;-69
2024/04/17 12:34:49;;;;;;;3.97;1.50;;;18.10;40.50;;;;;;5453679;26;20286;-69
2024/04/17 12:37:15;;;;;;;1.33;1.23;;;17.30;41.50;;;;;;5421908;26;20235;-69
2024/04/17 12:39:41;;;;;;;1.50;1.30;;;16.70;42.70;;;;;;5421384;26;20496;-69
2024/04/17 12:42:07;;;;;;;1.33;1.23;;;16.20;44.20;;;;;;5421542;26;20219;-69
2024/04/17 12:44:33;;;;;;;2.47;1.60;;;16.00;46.00;;;;;;5452721;26;20453;-69
2024/04/17 12:46:58;;;;;;;1.90;1.80;;;15.90;47.90;;;;;;5453563;26;20253;-69
2024/04/17 12:49:26;;;;;;;1.87;1.40;;;15.70;48.90;;;;;;5453420;26;20216;-69